sensor_id;sensor_type;location;lat;lon;timestamp;P1;durP1;ratioP1;P2;durP2;ratioP2
62006;SDS011;47963;53.008;6.754;2022-12-07T00:02:14;16.25;;;6.07;;
62006;SDS011;47963;53.008;6.754;2022-12-07T00:04:40;16.38;;;6.55;;
62006;SDS011;47963;53.008;6.754;2022-12-07T00:07:06;17.77;;;5.30;;
62006;SDS011;47963;53.008;6.754;2022-12-07T00:09:31;18.48;;;5.10;;
62006;SDS011;47963;53.008;6.754;2022-12-07T00:11:57;17.13;;;4.70;;
62006;SDS011;47963;53.008;6.754;2022-12-07T00:14:23;17.95;;;5.13;;
62006;SDS011;47963;53.008;6.754;2022-12-07T00:16:49;16.00;;;4.65;;
62006;SDS011;47963;53.008;6.754;2022-12-07T00:19:16;13.23;;;3.88;;
62006;SDS011;47963;53.008;6.754;2022-12-07T00:21:42;15.40;;;4.00;;
62006;SDS011;47963;53.008;6.754;2022-12-07T00:24:08;18.02;;;3.72;;
62006;SDS011;47963;53.008;6.754;2022-12-07T00:26:37;13.05;;;3.97;;
62006;SDS011;47963;53.008;6.754;2022-12-07T00:29:04;18.70;;;3.83;;
62006;SDS011;47963;53.008;6.754;2022-12-07T00:31:33;13.98;;;3.40;;
62006;SDS011;47963;53.008;6.754;2022-12-07T00:34:03;17.80;;;3.28;;
62006;SDS011;47963;53.008;6.754;2022-12-07T00:36:30;15.45;;;3.30;;
62006;SDS011;47963;53.008;6.754;2022-12-07T00:38:57;16.33;;;3.22;;
62006;SDS011;47963;53.008;6.754;2022-12-07T00:41:24;13.70;;;3.10;;
62006;SDS011;47963;53.008;6.754;2022-12-07T00:43:51;14.65;;;3.45;;
62006;SDS011;47963;53.008;6.754;2022-12-07T00:46:18;16.98;;;3.15;;
62006;SDS011;47963;53.008;6.754;2022-12-07T00:48:45;13.98;;;3.35;;
62006;SDS011;47963;53.008;6.754;2022-12-07T00:51:12;12.48;;;3.30;;
62006;SDS011;47963;53.008;6.754;2022-12-07T00:53:39;11.48;;;3.03;;
62006;SDS011;47963;53.008;6.754;2022-12-07T00:56:06;13.40;;;2.80;;
62006;SDS011;47963;53.008;6.754;2022-12-07T00:58:33;12.85;;;2.83;;
62006;SDS011;47963;53.008;6.754;2022-12-07T01:01:02;16.80;;;3.50;;
62006;SDS011;47963;53.008;6.754;2022-12-07T01:03:30;14.77;;;3.63;;
62006;SDS011;47963;53.008;6.754;2022-12-07T01:05:56;14.77;;;3.03;;
62006;SDS011;47963;53.008;6.754;2022-12-07T01:08:23;15.73;;;3.42;;
62006;SDS011;47963;53.008;6.754;2022-12-07T01:11:06;18.00;;;3.75;;
62006;SDS011;47963;53.008;6.754;2022-12-07T01:13:34;12.98;;;3.22;;
62006;SDS011;47963;53.008;6.754;2022-12-07T01:16:02;16.10;;;3.42;;
62006;SDS011;47963;53.008;6.754;2022-12-07T01:18:30;14.07;;;3.13;;
62006;SDS011;47963;53.008;6.754;2022-12-07T01:20:59;14.60;;;3.08;;
62006;SDS011;47963;53.008;6.754;2022-12-07T01:23:30;15.75;;;3.22;;
62006;SDS011;47963;53.008;6.754;2022-12-07T01:25:57;13.73;;;3.10;;
62006;SDS011;47963;53.008;6.754;2022-12-07T01:28:24;13.65;;;2.75;;
62006;SDS011;47963;53.008;6.754;2022-12-07T01:31:04;14.70;;;2.75;;
62006;SDS011;47963;53.008;6.754;2022-12-07T01:33:40;15.10;;;3.10;;
62006;SDS011;47963;53.008;6.754;2022-12-07T01:36:19;17.48;;;3.38;;
62006;SDS011;47963;53.008;6.754;2022-12-07T01:38:47;13.52;;;2.72;;
62006;SDS011;47963;53.008;6.754;2022-12-07T01:41:14;13.18;;;3.03;;
62006;SDS011;47963;53.008;6.754;2022-12-07T01:46:47;12.50;;;3.42;;
62006;SDS011;47963;53.008;6.754;2022-12-07T01:51:59;12.35;;;2.90;;
62006;SDS011;47963;53.008;6.754;2022-12-07T01:54:49;14.13;;;2.88;;
62006;SDS011;47963;53.008;6.754;2022-12-07T01:57:18;16.10;;;2.97;;
62006;SDS011;47963;53.008;6.754;2022-12-07T01:59:45;13.52;;;2.80;;
62006;SDS011;47963;53.008;6.754;2022-12-07T02:02:17;14.18;;;2.85;;
62006;SDS011;47963;53.008;6.754;2022-12-07T02:04:45;12.80;;;2.25;;
62006;SDS011;47963;53.008;6.754;2022-12-07T02:07:11;12.57;;;2.40;;
62006;SDS011;47963;53.008;6.754;2022-12-07T02:09:37;12.55;;;2.45;;
62006;SDS011;47963;53.008;6.754;2022-12-07T02:12:03;12.90;;;2.40;;
62006;SDS011;47963;53.008;6.754;2022-12-07T02:14:29;12.95;;;2.60;;
62006;SDS011;47963;53.008;6.754;2022-12-07T02:22:18;12.52;;;2.10;;
62006;SDS011;47963;53.008;6.754;2022-12-07T02:27:46;13.00;;;2.17;;
62006;SDS011;47963;53.008;6.754;2022-12-07T02:30:18;9.95;;;2.03;;
62006;SDS011;47963;53.008;6.754;2022-12-07T02:33:05;12.90;;;2.30;;
62006;SDS011;47963;53.008;6.754;2022-12-07T02:35:44;13.35;;;2.38;;
62006;SDS011;47963;53.008;6.754;2022-12-07T02:38:17;14.65;;;2.42;;
62006;SDS011;47963;53.008;6.754;2022-12-07T02:40:57;10.77;;;2.20;;
62006;SDS011;47963;53.008;6.754;2022-12-07T02:46:13;12.00;;;2.40;;
62006;SDS011;47963;53.008;6.754;2022-12-07T02:48:42;14.73;;;2.22;;
62006;SDS011;47963;53.008;6.754;2022-12-07T02:51:09;13.20;;;1.95;;
62006;SDS011;47963;53.008;6.754;2022-12-07T02:53:41;17.83;;;3.10;;
62006;SDS011;47963;53.008;6.754;2022-12-07T02:56:13;13.73;;;2.45;;
62006;SDS011;47963;53.008;6.754;2022-12-07T03:06:40;14.55;;;2.13;;
62006;SDS011;47963;53.008;6.754;2022-12-07T03:11:55;11.48;;;1.90;;
62006;SDS011;47963;53.008;6.754;2022-12-07T03:14:34;12.02;;;2.20;;
62006;SDS011;47963;53.008;6.754;2022-12-07T03:17:11;10.50;;;1.83;;
62006;SDS011;47963;53.008;6.754;2022-12-07T03:19:40;11.52;;;2.00;;
62006;SDS011;47963;53.008;6.754;2022-12-07T03:22:08;14.00;;;2.03;;
62006;SDS011;47963;53.008;6.754;2022-12-07T03:24:39;11.80;;;2.17;;
62006;SDS011;47963;53.008;6.754;2022-12-07T03:27:11;12.63;;;2.13;;
62006;SDS011;47963;53.008;6.754;2022-12-07T03:29:43;13.75;;;2.10;;
62006;SDS011;47963;53.008;6.754;2022-12-07T03:32:26;13.05;;;2.00;;
62006;SDS011;47963;53.008;6.754;2022-12-07T03:35:17;11.45;;;2.17;;
62006;SDS011;47963;53.008;6.754;2022-12-07T03:43:09;12.13;;;2.35;;
62006;SDS011;47963;53.008;6.754;2022-12-07T03:45:43;12.95;;;1.70;;
62006;SDS011;47963;53.008;6.754;2022-12-07T03:48:25;10.07;;;1.73;;
62006;SDS011;47963;53.008;6.754;2022-12-07T03:53:51;13.68;;;1.83;;
62006;SDS011;47963;53.008;6.754;2022-12-07T03:56:23;16.60;;;2.60;;
62006;SDS011;47963;53.008;6.754;2022-12-07T03:58:50;13.75;;;2.10;;
62006;SDS011;47963;53.008;6.754;2022-12-07T04:01:18;12.68;;;1.95;;
62006;SDS011;47963;53.008;6.754;2022-12-07T04:03:44;8.95;;;1.88;;
62006;SDS011;47963;53.008;6.754;2022-12-07T04:06:10;11.32;;;2.00;;
62006;SDS011;47963;53.008;6.754;2022-12-07T04:08:36;14.15;;;2.03;;
62006;SDS011;47963;53.008;6.754;2022-12-07T04:11:02;12.52;;;2.08;;
62006;SDS011;47963;53.008;6.754;2022-12-07T04:13:27;16.73;;;2.65;;
62006;SDS011;47963;53.008;6.754;2022-12-07T04:15:53;13.50;;;2.08;;
62006;SDS011;47963;53.008;6.754;2022-12-07T04:18:19;13.15;;;2.20;;
62006;SDS011;47963;53.008;6.754;2022-12-07T04:20:45;14.02;;;2.22;;
62006;SDS011;47963;53.008;6.754;2022-12-07T04:23:11;14.18;;;2.40;;
62006;SDS011;47963;53.008;6.754;2022-12-07T04:25:37;14.77;;;1.98;;
62006;SDS011;47963;53.008;6.754;2022-12-07T04:28:02;12.40;;;1.90;;
62006;SDS011;47963;53.008;6.754;2022-12-07T04:30:28;15.02;;;2.53;;
62006;SDS011;47963;53.008;6.754;2022-12-07T04:32:54;13.57;;;2.03;;
62006;SDS011;47963;53.008;6.754;2022-12-07T04:35:19;17.13;;;2.45;;
62006;SDS011;47963;53.008;6.754;2022-12-07T04:37:45;14.65;;;2.38;;
62006;SDS011;47963;53.008;6.754;2022-12-07T04:40:11;13.60;;;2.17;;
62006;SDS011;47963;53.008;6.754;2022-12-07T04:42:39;10.80;;;2.13;;
62006;SDS011;47963;53.008;6.754;2022-12-07T04:45:05;14.82;;;2.00;;
62006;SDS011;47963;53.008;6.754;2022-12-07T04:47:31;14.95;;;2.38;;
62006;SDS011;47963;53.008;6.754;2022-12-07T04:49:56;16.90;;;2.45;;
62006;SDS011;47963;53.008;6.754;2022-12-07T04:52:22;15.98;;;2.10;;
62006;SDS011;47963;53.008;6.754;2022-12-07T04:54:48;14.55;;;2.05;;
62006;SDS011;47963;53.008;6.754;2022-12-07T04:57:13;16.70;;;2.63;;
62006;SDS011;47963;53.008;6.754;2022-12-07T04:59:39;13.80;;;2.30;;
62006;SDS011;47963;53.008;6.754;2022-12-07T05:02:05;10.90;;;2.30;;
62006;SDS011;47963;53.008;6.754;2022-12-07T05:04:30;12.90;;;2.65;;
62006;SDS011;47963;53.008;6.754;2022-12-07T05:06:56;18.38;;;2.25;;
62006;SDS011;47963;53.008;6.754;2022-12-07T05:09:21;13.75;;;2.10;;
62006;SDS011;47963;53.008;6.754;2022-12-07T05:11:47;18.85;;;2.67;;
62006;SDS011;47963;53.008;6.754;2022-12-07T05:14:19;15.38;;;2.78;;
62006;SDS011;47963;53.008;6.754;2022-12-07T05:16:46;16.52;;;1.98;;
62006;SDS011;47963;53.008;6.754;2022-12-07T05:19:13;13.52;;;3.08;;
62006;SDS011;47963;53.008;6.754;2022-12-07T05:21:39;12.95;;;1.90;;
62006;SDS011;47963;53.008;6.754;2022-12-07T05:24:05;15.00;;;2.42;;
62006;SDS011;47963;53.008;6.754;2022-12-07T05:26:32;13.45;;;2.05;;
62006;SDS011;47963;53.008;6.754;2022-12-07T05:28:59;14.38;;;2.58;;
62006;SDS011;47963;53.008;6.754;2022-12-07T05:31:26;12.93;;;1.90;;
62006;SDS011;47963;53.008;6.754;2022-12-07T05:33:53;9.45;;;1.70;;
62006;SDS011;47963;53.008;6.754;2022-12-07T05:36:18;12.20;;;2.20;;
62006;SDS011;47963;53.008;6.754;2022-12-07T05:38:44;11.50;;;2.03;;
62006;SDS011;47963;53.008;6.754;2022-12-07T05:41:11;13.57;;;2.42;;
62006;SDS011;47963;53.008;6.754;2022-12-07T05:43:59;13.25;;;2.33;;
62006;SDS011;47963;53.008;6.754;2022-12-07T05:46:24;11.27;;;2.15;;
62006;SDS011;47963;53.008;6.754;2022-12-07T05:48:50;8.32;;;1.83;;
62006;SDS011;47963;53.008;6.754;2022-12-07T05:51:16;11.63;;;2.00;;
62006;SDS011;47963;53.008;6.754;2022-12-07T05:53:41;11.95;;;2.17;;
62006;SDS011;47963;53.008;6.754;2022-12-07T05:56:07;11.07;;;2.05;;
62006;SDS011;47963;53.008;6.754;2022-12-07T05:58:33;11.25;;;2.47;;
62006;SDS011;47963;53.008;6.754;2022-12-07T06:01:17;10.18;;;2.20;;
62006;SDS011;47963;53.008;6.754;2022-12-07T06:03:43;14.23;;;4.07;;
62006;SDS011;47963;53.008;6.754;2022-12-07T06:06:09;14.98;;;3.17;;
62006;SDS011;47963;53.008;6.754;2022-12-07T06:08:35;17.92;;;4.20;;
62006;SDS011;47963;53.008;6.754;2022-12-07T06:11:01;15.05;;;3.22;;
62006;SDS011;47963;53.008;6.754;2022-12-07T06:13:45;20.40;;;13.23;;
62006;SDS011;47963;53.008;6.754;2022-12-07T06:16:11;18.85;;;15.98;;
62006;SDS011;47963;53.008;6.754;2022-12-07T06:18:37;14.05;;;5.38;;
62006;SDS011;47963;53.008;6.754;2022-12-07T06:21:03;16.92;;;3.00;;
62006;SDS011;47963;53.008;6.754;2022-12-07T06:23:28;16.00;;;2.70;;
62006;SDS011;47963;53.008;6.754;2022-12-07T06:25:54;12.52;;;2.30;;
62006;SDS011;47963;53.008;6.754;2022-12-07T06:28:19;10.73;;;2.80;;
62006;SDS011;47963;53.008;6.754;2022-12-07T06:30:45;18.05;;;2.90;;
62006;SDS011;47963;53.008;6.754;2022-12-07T06:33:11;14.27;;;3.00;;
62006;SDS011;47963;53.008;6.754;2022-12-07T06:35:36;13.25;;;2.25;;
62006;SDS011;47963;53.008;6.754;2022-12-07T06:38:02;18.23;;;2.80;;
62006;SDS011;47963;53.008;6.754;2022-12-07T06:40:28;16.45;;;2.40;;
62006;SDS011;47963;53.008;6.754;2022-12-07T06:42:53;12.30;;;2.55;;
62006;SDS011;47963;53.008;6.754;2022-12-07T06:45:19;14.52;;;2.58;;
62006;SDS011;47963;53.008;6.754;2022-12-07T06:47:44;15.55;;;2.50;;
62006;SDS011;47963;53.008;6.754;2022-12-07T06:50:10;18.27;;;2.88;;
62006;SDS011;47963;53.008;6.754;2022-12-07T06:52:36;13.75;;;3.00;;
62006;SDS011;47963;53.008;6.754;2022-12-07T06:55:01;16.63;;;3.00;;
62006;SDS011;47963;53.008;6.754;2022-12-07T06:57:27;12.10;;;2.17;;
62006;SDS011;47963;53.008;6.754;2022-12-07T06:59:53;17.35;;;2.78;;
62006;SDS011;47963;53.008;6.754;2022-12-07T07:02:18;15.27;;;2.45;;
62006;SDS011;47963;53.008;6.754;2022-12-07T07:04:44;15.40;;;2.17;;
62006;SDS011;47963;53.008;6.754;2022-12-07T07:07:10;13.98;;;2.40;;
62006;SDS011;47963;53.008;6.754;2022-12-07T07:09:36;14.90;;;2.13;;
62006;SDS011;47963;53.008;6.754;2022-12-07T07:12:01;13.43;;;2.20;;
62006;SDS011;47963;53.008;6.754;2022-12-07T07:14:27;15.15;;;2.25;;
62006;SDS011;47963;53.008;6.754;2022-12-07T07:16:52;15.25;;;2.60;;
62006;SDS011;47963;53.008;6.754;2022-12-07T07:19:18;16.63;;;2.88;;
62006;SDS011;47963;53.008;6.754;2022-12-07T07:21:44;11.52;;;2.25;;
62006;SDS011;47963;53.008;6.754;2022-12-07T07:24:09;13.63;;;2.28;;
62006;SDS011;47963;53.008;6.754;2022-12-07T07:26:35;12.70;;;2.22;;
62006;SDS011;47963;53.008;6.754;2022-12-07T07:29:01;14.95;;;2.30;;
62006;SDS011;47963;53.008;6.754;2022-12-07T07:31:27;12.85;;;2.65;;
62006;SDS011;47963;53.008;6.754;2022-12-07T07:33:52;13.15;;;2.35;;
62006;SDS011;47963;53.008;6.754;2022-12-07T07:36:18;14.40;;;2.30;;
62006;SDS011;47963;53.008;6.754;2022-12-07T07:38:43;13.45;;;2.30;;
62006;SDS011;47963;53.008;6.754;2022-12-07T07:41:09;13.45;;;2.20;;
62006;SDS011;47963;53.008;6.754;2022-12-07T07:43:35;15.38;;;2.33;;
62006;SDS011;47963;53.008;6.754;2022-12-07T07:46:00;12.27;;;2.25;;
62006;SDS011;47963;53.008;6.754;2022-12-07T07:48:26;13.43;;;2.15;;
62006;SDS011;47963;53.008;6.754;2022-12-07T07:50:51;11.52;;;2.20;;
62006;SDS011;47963;53.008;6.754;2022-12-07T07:53:17;10.88;;;2.17;;
62006;SDS011;47963;53.008;6.754;2022-12-07T07:55:52;9.93;;;1.80;;
62006;SDS011;47963;53.008;6.754;2022-12-07T07:58:19;12.15;;;1.88;;
62006;SDS011;47963;53.008;6.754;2022-12-07T08:00:45;12.07;;;2.20;;
62006;SDS011;47963;53.008;6.754;2022-12-07T08:03:11;16.25;;;2.10;;
62006;SDS011;47963;53.008;6.754;2022-12-07T08:05:37;11.30;;;2.00;;
62006;SDS011;47963;53.008;6.754;2022-12-07T08:08:03;14.73;;;2.25;;
62006;SDS011;47963;53.008;6.754;2022-12-07T08:10:28;13.07;;;2.03;;
62006;SDS011;47963;53.008;6.754;2022-12-07T08:12:57;14.82;;;2.42;;
62006;SDS011;47963;53.008;6.754;2022-12-07T08:15:39;12.65;;;2.47;;
62006;SDS011;47963;53.008;6.754;2022-12-07T08:18:06;13.20;;;2.50;;
62006;SDS011;47963;53.008;6.754;2022-12-07T08:20:33;12.88;;;2.28;;
62006;SDS011;47963;53.008;6.754;2022-12-07T08:23:00;11.23;;;2.00;;
62006;SDS011;47963;53.008;6.754;2022-12-07T08:25:26;9.55;;;2.45;;
62006;SDS011;47963;53.008;6.754;2022-12-07T08:27:52;15.63;;;2.60;;
62006;SDS011;47963;53.008;6.754;2022-12-07T08:30:18;13.80;;;2.33;;
62006;SDS011;47963;53.008;6.754;2022-12-07T08:32:45;11.20;;;2.50;;
62006;SDS011;47963;53.008;6.754;2022-12-07T08:35:11;11.43;;;2.53;;
62006;SDS011;47963;53.008;6.754;2022-12-07T08:37:38;11.85;;;2.42;;
62006;SDS011;47963;53.008;6.754;2022-12-07T08:40:04;11.77;;;2.80;;
62006;SDS011;47963;53.008;6.754;2022-12-07T08:42:31;16.15;;;3.20;;
62006;SDS011;47963;53.008;6.754;2022-12-07T08:45:04;14.70;;;2.50;;
62006;SDS011;47963;53.008;6.754;2022-12-07T08:47:39;11.15;;;2.72;;
62006;SDS011;47963;53.008;6.754;2022-12-07T08:50:07;17.75;;;3.28;;
62006;SDS011;47963;53.008;6.754;2022-12-07T08:52:35;16.40;;;3.22;;
62006;SDS011;47963;53.008;6.754;2022-12-07T08:55:01;14.75;;;3.13;;
62006;SDS011;47963;53.008;6.754;2022-12-07T08:57:28;14.65;;;3.00;;
62006;SDS011;47963;53.008;6.754;2022-12-07T08:59:54;18.52;;;3.20;;
62006;SDS011;47963;53.008;6.754;2022-12-07T09:02:20;15.98;;;3.40;;
62006;SDS011;47963;53.008;6.754;2022-12-07T09:04:46;14.25;;;3.38;;
62006;SDS011;47963;53.008;6.754;2022-12-07T09:07:12;14.05;;;3.67;;
62006;SDS011;47963;53.008;6.754;2022-12-07T09:09:37;14.50;;;3.15;;
62006;SDS011;47963;53.008;6.754;2022-12-07T09:12:03;14.73;;;3.60;;
62006;SDS011;47963;53.008;6.754;2022-12-07T09:14:29;16.08;;;3.45;;
62006;SDS011;47963;53.008;6.754;2022-12-07T09:16:55;12.55;;;3.13;;
62006;SDS011;47963;53.008;6.754;2022-12-07T09:19:29;12.93;;;2.80;;
62006;SDS011;47963;53.008;6.754;2022-12-07T09:21:54;16.58;;;4.05;;
62006;SDS011;47963;53.008;6.754;2022-12-07T09:24:20;16.48;;;3.83;;
62006;SDS011;47963;53.008;6.754;2022-12-07T09:26:47;15.65;;;3.30;;
62006;SDS011;47963;53.008;6.754;2022-12-07T09:29:13;17.67;;;3.78;;
62006;SDS011;47963;53.008;6.754;2022-12-07T09:31:38;16.65;;;3.20;;
62006;SDS011;47963;53.008;6.754;2022-12-07T09:34:04;16.52;;;3.58;;
62006;SDS011;47963;53.008;6.754;2022-12-07T09:36:30;16.80;;;3.13;;
62006;SDS011;47963;53.008;6.754;2022-12-07T09:38:57;15.15;;;2.88;;
62006;SDS011;47963;53.008;6.754;2022-12-07T09:41:23;14.82;;;3.00;;
62006;SDS011;47963;53.008;6.754;2022-12-07T09:43:50;18.23;;;3.65;;
62006;SDS011;47963;53.008;6.754;2022-12-07T09:46:17;17.10;;;3.25;;
62006;SDS011;47963;53.008;6.754;2022-12-07T09:48:45;16.88;;;3.38;;
62006;SDS011;47963;53.008;6.754;2022-12-07T09:53:48;14.35;;;3.60;;
62006;SDS011;47963;53.008;6.754;2022-12-07T09:56:15;13.57;;;3.30;;
62006;SDS011;47963;53.008;6.754;2022-12-07T09:58:42;14.35;;;3.22;;
62006;SDS011;47963;53.008;6.754;2022-12-07T10:03:35;16.15;;;2.80;;
62006;SDS011;47963;53.008;6.754;2022-12-07T10:06:03;11.85;;;2.90;;
62006;SDS011;47963;53.008;6.754;2022-12-07T10:08:30;15.05;;;3.20;;
62006;SDS011;47963;53.008;6.754;2022-12-07T10:10:57;14.02;;;2.97;;
62006;SDS011;47963;53.008;6.754;2022-12-07T10:13:37;16.17;;;3.60;;
62006;SDS011;47963;53.008;6.754;2022-12-07T10:16:04;14.80;;;2.90;;
62006;SDS011;47963;53.008;6.754;2022-12-07T10:24:04;13.77;;;3.35;;
62006;SDS011;47963;53.008;6.754;2022-12-07T10:32:32;15.48;;;2.75;;
62006;SDS011;47963;53.008;6.754;2022-12-07T10:34:41;14.52;;;2.67;;
62006;SDS011;47963;53.008;6.754;2022-12-07T10:44:50;9.88;;;2.42;;
62006;SDS011;47963;53.008;6.754;2022-12-07T10:50:52;12.98;;;2.03;;
62006;SDS011;47963;53.008;6.754;2022-12-07T10:58:55;9.60;;;1.92;;
62006;SDS011;47963;53.008;6.754;2022-12-07T11:01:30;12.43;;;2.10;;
62006;SDS011;47963;53.008;6.754;2022-12-07T11:06:58;12.73;;;2.30;;
62006;SDS011;47963;53.008;6.754;2022-12-07T11:26:17;13.43;;;3.03;;
62006;SDS011;47963;53.008;6.754;2022-12-07T11:31:35;13.63;;;3.03;;
62006;SDS011;47963;53.008;6.754;2022-12-07T11:34:42;12.57;;;3.15;;
62006;SDS011;47963;53.008;6.754;2022-12-07T11:37:35;15.68;;;2.80;;
62006;SDS011;47963;53.008;6.754;2022-12-07T11:40:04;12.82;;;2.70;;
62006;SDS011;47963;53.008;6.754;2022-12-07T11:42:41;14.45;;;2.70;;
62006;SDS011;47963;53.008;6.754;2022-12-07T11:47:57;9.63;;;1.65;;
62006;SDS011;47963;53.008;6.754;2022-12-07T12:03:44;7.20;;;1.52;;
62006;SDS011;47963;53.008;6.754;2022-12-07T12:06:18;10.43;;;1.70;;
62006;SDS011;47963;53.008;6.754;2022-12-07T12:08:46;9.75;;;1.30;;
62006;SDS011;47963;53.008;6.754;2022-12-07T12:14:30;8.90;;;1.52;;
62006;SDS011;47963;53.008;6.754;2022-12-07T12:17:10;10.13;;;2.25;;
62006;SDS011;47963;53.008;6.754;2022-12-07T12:22:28;8.85;;;1.60;;
62006;SDS011;47963;53.008;6.754;2022-12-07T12:25:05;9.52;;;1.45;;
62006;SDS011;47963;53.008;6.754;2022-12-07T12:27:37;8.15;;;1.58;;
62006;SDS011;47963;53.008;6.754;2022-12-07T12:30:06;12.30;;;2.00;;
62006;SDS011;47963;53.008;6.754;2022-12-07T12:32:48;11.02;;;2.08;;
62006;SDS011;47963;53.008;6.754;2022-12-07T12:35:31;10.73;;;1.80;;
62006;SDS011;47963;53.008;6.754;2022-12-07T12:38:20;9.32;;;1.77;;
62006;SDS011;47963;53.008;6.754;2022-12-07T12:40:58;12.55;;;1.98;;
62006;SDS011;47963;53.008;6.754;2022-12-07T12:43:44;11.57;;;2.53;;
62006;SDS011;47963;53.008;6.754;2022-12-07T12:54:39;10.38;;;3.22;;
62006;SDS011;47963;53.008;6.754;2022-12-07T12:57:24;13.52;;;3.80;;
62006;SDS011;47963;53.008;6.754;2022-12-07T13:10:20;17.13;;;3.00;;
62006;SDS011;47963;53.008;6.754;2022-12-07T13:20:55;11.35;;;2.40;;
62006;SDS011;47963;53.008;6.754;2022-12-07T13:25:54;10.68;;;2.05;;
62006;SDS011;47963;53.008;6.754;2022-12-07T13:28:26;8.50;;;1.67;;
62006;SDS011;47963;53.008;6.754;2022-12-07T13:31:03;7.80;;;1.35;;
62006;SDS011;47963;53.008;6.754;2022-12-07T13:33:30;8.80;;;1.50;;
62006;SDS011;47963;53.008;6.754;2022-12-07T13:35:56;6.82;;;1.42;;
62006;SDS011;47963;53.008;6.754;2022-12-07T13:38:28;8.98;;;2.50;;
62006;SDS011;47963;53.008;6.754;2022-12-07T13:41:01;8.20;;;1.50;;
62006;SDS011;47963;53.008;6.754;2022-12-07T13:43:50;5.70;;;1.20;;
62006;SDS011;47963;53.008;6.754;2022-12-07T13:46:24;8.77;;;1.40;;
62006;SDS011;47963;53.008;6.754;2022-12-07T13:48:55;7.65;;;1.35;;
62006;SDS011;47963;53.008;6.754;2022-12-07T13:51:23;4.78;;;1.08;;
62006;SDS011;47963;53.008;6.754;2022-12-07T13:54:01;5.00;;;1.02;;
62006;SDS011;47963;53.008;6.754;2022-12-07T13:56:34;9.10;;;1.20;;
62006;SDS011;47963;53.008;6.754;2022-12-07T13:59:00;8.05;;;1.13;;
62006;SDS011;47963;53.008;6.754;2022-12-07T14:01:27;6.10;;;1.27;;
62006;SDS011;47963;53.008;6.754;2022-12-07T14:03:55;4.32;;;1.17;;
62006;SDS011;47963;53.008;6.754;2022-12-07T14:06:47;8.25;;;1.20;;
62006;SDS011;47963;53.008;6.754;2022-12-07T14:09:21;8.38;;;1.33;;
62006;SDS011;47963;53.008;6.754;2022-12-07T14:11:49;6.53;;;1.20;;
62006;SDS011;47963;53.008;6.754;2022-12-07T14:14:21;4.95;;;0.95;;
62006;SDS011;47963;53.008;6.754;2022-12-07T14:16:56;7.95;;;1.10;;
62006;SDS011;47963;53.008;6.754;2022-12-07T14:25:21;8.60;;;1.60;;
62006;SDS011;47963;53.008;6.754;2022-12-07T14:30:22;7.05;;;1.50;;
62006;SDS011;47963;53.008;6.754;2022-12-07T14:33:07;9.27;;;1.60;;
62006;SDS011;47963;53.008;6.754;2022-12-07T14:35:34;9.50;;;1.67;;
62006;SDS011;47963;53.008;6.754;2022-12-07T14:38:05;11.05;;;1.73;;
62006;SDS011;47963;53.008;6.754;2022-12-07T14:40:31;7.00;;;1.58;;
62006;SDS011;47963;53.008;6.754;2022-12-07T14:45:27;7.90;;;1.80;;
62006;SDS011;47963;53.008;6.754;2022-12-07T14:47:53;8.57;;;1.58;;
62006;SDS011;47963;53.008;6.754;2022-12-07T14:50:19;7.40;;;1.40;;
62006;SDS011;47963;53.008;6.754;2022-12-07T14:52:47;9.02;;;1.80;;
62006;SDS011;47963;53.008;6.754;2022-12-07T14:55:20;7.07;;;1.48;;
62006;SDS011;47963;53.008;6.754;2022-12-07T14:57:51;9.27;;;1.92;;
62006;SDS011;47963;53.008;6.754;2022-12-07T15:00:18;7.07;;;2.33;;
62006;SDS011;47963;53.008;6.754;2022-12-07T15:02:46;9.68;;;2.40;;
62006;SDS011;47963;53.008;6.754;2022-12-07T15:05:12;8.75;;;1.73;;
62006;SDS011;47963;53.008;6.754;2022-12-07T15:07:38;6.40;;;1.60;;
62006;SDS011;47963;53.008;6.754;2022-12-07T15:10:04;7.70;;;1.50;;
62006;SDS011;47963;53.008;6.754;2022-12-07T15:12:30;12.45;;;2.15;;
62006;SDS011;47963;53.008;6.754;2022-12-07T15:14:56;11.93;;;2.40;;
62006;SDS011;47963;53.008;6.754;2022-12-07T15:17:22;10.48;;;1.90;;
62006;SDS011;47963;53.008;6.754;2022-12-07T15:19:47;11.40;;;1.58;;
62006;SDS011;47963;53.008;6.754;2022-12-07T15:22:13;11.30;;;1.58;;
62006;SDS011;47963;53.008;6.754;2022-12-07T15:24:38;8.45;;;2.17;;
62006;SDS011;47963;53.008;6.754;2022-12-07T15:27:04;7.40;;;1.48;;
62006;SDS011;47963;53.008;6.754;2022-12-07T15:29:30;11.25;;;2.10;;
62006;SDS011;47963;53.008;6.754;2022-12-07T15:31:55;9.20;;;1.90;;
62006;SDS011;47963;53.008;6.754;2022-12-07T15:34:21;8.05;;;1.95;;
62006;SDS011;47963;53.008;6.754;2022-12-07T15:36:48;8.68;;;1.70;;
62006;SDS011;47963;53.008;6.754;2022-12-07T15:39:14;8.85;;;1.95;;
62006;SDS011;47963;53.008;6.754;2022-12-07T15:41:39;8.93;;;1.83;;
62006;SDS011;47963;53.008;6.754;2022-12-07T15:44:05;7.82;;;1.80;;
62006;SDS011;47963;53.008;6.754;2022-12-07T15:46:49;8.68;;;1.70;;
62006;SDS011;47963;53.008;6.754;2022-12-07T15:49:16;8.65;;;1.73;;
62006;SDS011;47963;53.008;6.754;2022-12-07T15:51:43;9.75;;;2.40;;
62006;SDS011;47963;53.008;6.754;2022-12-07T15:54:15;10.00;;;2.40;;
62006;SDS011;47963;53.008;6.754;2022-12-07T15:56:46;9.75;;;2.80;;
62006;SDS011;47963;53.008;6.754;2022-12-07T15:59:12;8.55;;;3.15;;
62006;SDS011;47963;53.008;6.754;2022-12-07T16:01:37;11.18;;;4.25;;
62006;SDS011;47963;53.008;6.754;2022-12-07T16:04:03;14.10;;;7.43;;
62006;SDS011;47963;53.008;6.754;2022-12-07T16:06:29;15.35;;;9.88;;
62006;SDS011;47963;53.008;6.754;2022-12-07T16:08:55;13.88;;;7.53;;
62006;SDS011;47963;53.008;6.754;2022-12-07T16:11:20;11.63;;;4.50;;
62006;SDS011;47963;53.008;6.754;2022-12-07T16:13:46;12.60;;;2.58;;
62006;SDS011;47963;53.008;6.754;2022-12-07T16:16:13;10.60;;;2.58;;
62006;SDS011;47963;53.008;6.754;2022-12-07T16:18:41;10.68;;;2.60;;
62006;SDS011;47963;53.008;6.754;2022-12-07T16:21:07;12.10;;;4.72;;
62006;SDS011;47963;53.008;6.754;2022-12-07T16:23:33;9.90;;;2.65;;
62006;SDS011;47963;53.008;6.754;2022-12-07T16:26:06;9.45;;;2.60;;
62006;SDS011;47963;53.008;6.754;2022-12-07T16:28:33;10.85;;;4.30;;
62006;SDS011;47963;53.008;6.754;2022-12-07T16:31:00;11.18;;;2.97;;
62006;SDS011;47963;53.008;6.754;2022-12-07T16:33:27;12.80;;;4.97;;
62006;SDS011;47963;53.008;6.754;2022-12-07T16:35:52;11.55;;;3.83;;
62006;SDS011;47963;53.008;6.754;2022-12-07T16:38:18;14.50;;;5.50;;
62006;SDS011;47963;53.008;6.754;2022-12-07T16:40:43;11.55;;;4.32;;
62006;SDS011;47963;53.008;6.754;2022-12-07T16:43:10;14.27;;;10.50;;
62006;SDS011;47963;53.008;6.754;2022-12-07T16:45:38;16.10;;;7.70;;
62006;SDS011;47963;53.008;6.754;2022-12-07T16:48:03;16.05;;;7.28;;
62006;SDS011;47963;53.008;6.754;2022-12-07T16:50:30;11.50;;;4.85;;
62006;SDS011;47963;53.008;6.754;2022-12-07T16:52:55;11.55;;;4.63;;
62006;SDS011;47963;53.008;6.754;2022-12-07T16:55:21;11.35;;;4.25;;
62006;SDS011;47963;53.008;6.754;2022-12-07T16:57:46;13.77;;;4.60;;
62006;SDS011;47963;53.008;6.754;2022-12-07T17:00:12;12.23;;;4.93;;
62006;SDS011;47963;53.008;6.754;2022-12-07T17:02:38;10.05;;;3.88;;
62006;SDS011;47963;53.008;6.754;2022-12-07T17:05:04;14.38;;;3.28;;
62006;SDS011;47963;53.008;6.754;2022-12-07T17:07:29;9.68;;;2.92;;
62006;SDS011;47963;53.008;6.754;2022-12-07T17:09:55;11.18;;;3.97;;
62006;SDS011;47963;53.008;6.754;2022-12-07T17:12:21;12.25;;;4.00;;
62006;SDS011;47963;53.008;6.754;2022-12-07T17:14:46;13.38;;;4.93;;
62006;SDS011;47963;53.008;6.754;2022-12-07T17:17:30;27.77;;;21.13;;
62006;SDS011;47963;53.008;6.754;2022-12-07T17:19:57;14.70;;;5.28;;